sensor_id;sensor_type;location;lat;lon;timestamp;P1;durP1;ratioP1;P2;durP2;ratioP2
27612;SDS011;15036;48.094;-1.690;2024-01-06T00:00:31;0.85;;;0.60;;
27612;SDS011;15036;48.094;-1.690;2024-01-06T00:02:56;0.30;;;0.30;;
27612;SDS011;15036;48.094;-1.690;2024-01-06T00:05:21;0.10;;;0.10;;
27612;SDS011;15036;48.094;-1.690;2024-01-06T00:07:46;0.10;;;0.10;;
27612;SDS011;15036;48.094;-1.690;2024-01-06T00:10:12;0.00;;;0.00;;
27612;SDS011;15036;48.094;-1.690;2024-01-06T00:12:37;0.00;;;0.00;;
27612;SDS011;15036;48.094;-1.690;2024-01-06T00:15:03;0.22;;;0.20;;
27612;SDS011;15036;48.094;-1.690;2024-01-06T00:17:28;1.17;;;0.93;;
27612;SDS011;15036;48.094;-1.690;2024-01-06T00:19:53;0.20;;;0.20;;
27612;SDS011;15036;48.094;-1.690;2024-01-06T00:22:19;0.38;;;0.38;;
27612;SDS011;15036;48.094;-1.690;2024-01-06T00:24:45;1.67;;;1.65;;
27612;SDS011;15036;48.094;-1.690;2024-01-06T00:27:10;0.00;;;0.00;;
27612;SDS011;15036;48.094;-1.690;2024-01-06T00:29:35;0.00;;;0.00;;
27612;SDS011;15036;48.094;-1.690;2024-01-06T00:32:00;0.20;;;0.20;;
27612;SDS011;15036;48.094;-1.690;2024-01-06T00:34:26;0.30;;;0.10;;
27612;SDS011;15036;48.094;-1.690;2024-01-06T00:36:51;0.40;;;0.30;;
27612;SDS011;15036;48.094;-1.690;2024-01-06T00:39:16;0.32;;;0.32;;
27612;SDS011;15036;48.094;-1.690;2024-01-06T00:41:41;1.55;;;0.82;;
27612;SDS011;15036;48.094;-1.690;2024-01-06T00:44:06;0.28;;;0.28;;
27612;SDS011;15036;48.094;-1.690;2024-01-06T00:46:31;0.10;;;0.10;;
27612;SDS011;15036;48.094;-1.690;2024-01-06T00:48:57;4.13;;;1.65;;
27612;SDS011;15036;48.094;-1.690;2024-01-06T00:51:22;3.10;;;2.63;;
27612;SDS011;15036;48.094;-1.690;2024-01-06T00:53:47;0.10;;;0.10;;
27612;SDS011;15036;48.094;-1.690;2024-01-06T00:56:12;0.38;;;0.30;;
27612;SDS011;15036;48.094;-1.690;2024-01-06T00:58:39;0.20;;;0.20;;
27612;SDS011;15036;48.094;-1.690;2024-01-06T01:01:04;0.30;;;0.30;;
27612;SDS011;15036;48.094;-1.690;2024-01-06T01:03:29;0.52;;;0.28;;
27612;SDS011;15036;48.094;-1.690;2024-01-06T01:05:55;0.10;;;0.10;;
27612;SDS011;15036;48.094;-1.690;2024-01-06T01:08:20;0.20;;;0.20;;
27612;SDS011;15036;48.094;-1.690;2024-01-06T01:10:45;0.93;;;0.63;;
27612;SDS011;15036;48.094;-1.690;2024-01-06T01:13:10;0.10;;;0.10;;
27612;SDS011;15036;48.094;-1.690;2024-01-06T01:15:35;0.68;;;0.60;;
27612;SDS011;15036;48.094;-1.690;2024-01-06T01:18:01;2.65;;;0.85;;
27612;SDS011;15036;48.094;-1.690;2024-01-06T01:20:27;1.30;;;0.43;;
27612;SDS011;15036;48.094;-1.690;2024-01-06T01:22:52;0.50;;;0.40;;
27612;SDS011;15036;48.094;-1.690;2024-01-06T01:25:18;0.43;;;0.20;;
27612;SDS011;15036;48.094;-1.690;2024-01-06T01:27:43;1.27;;;0.73;;
27612;SDS011;15036;48.094;-1.690;2024-01-06T01:30:08;0.32;;;0.32;;
27612;SDS011;15036;48.094;-1.690;2024-01-06T01:32:34;0.55;;;0.40;;
27612;SDS011;15036;48.094;-1.690;2024-01-06T01:34:59;0.30;;;0.30;;
27612;SDS011;15036;48.094;-1.690;2024-01-06T01:37:24;0.40;;;0.40;;
27612;SDS011;15036;48.094;-1.690;2024-01-06T01:39:49;1.02;;;0.65;;
27612;SDS011;15036;48.094;-1.690;2024-01-06T01:42:14;0.70;;;0.52;;
27612;SDS011;15036;48.094;-1.690;2024-01-06T01:44:40;0.47;;;0.35;;
27612;SDS011;15036;48.094;-1.690;2024-01-06T01:47:05;1.08;;;0.70;;
27612;SDS011;15036;48.094;-1.690;2024-01-06T01:49:31;0.40;;;0.32;;
27612;SDS011;15036;48.094;-1.690;2024-01-06T01:51:57;1.55;;;0.30;;
27612;SDS011;15036;48.094;-1.690;2024-01-06T01:54:22;0.30;;;0.30;;
27612;SDS011;15036;48.094;-1.690;2024-01-06T01:56:48;0.10;;;0.10;;
27612;SDS011;15036;48.094;-1.690;2024-01-06T01:59:15;0.35;;;0.20;;
27612;SDS011;15036;48.094;-1.690;2024-01-06T02:01:42;0.00;;;0.00;;
27612;SDS011;15036;48.094;-1.690;2024-01-06T02:04:08;0.98;;;0.52;;
27612;SDS011;15036;48.094;-1.690;2024-01-06T02:06:33;0.28;;;0.20;;
27612;SDS011;15036;48.094;-1.690;2024-01-06T02:08:58;1.35;;;0.63;;
27612;SDS011;15036;48.094;-1.690;2024-01-06T02:11:24;0.13;;;0.13;;
27612;SDS011;15036;48.094;-1.690;2024-01-06T02:13:49;0.73;;;0.43;;
27612;SDS011;15036;48.094;-1.690;2024-01-06T02:16:14;0.30;;;0.25;;
27612;SDS011;15036;48.094;-1.690;2024-01-06T02:18:39;1.38;;;0.60;;
27612;SDS011;15036;48.094;-1.690;2024-01-06T02:21:05;0.30;;;0.30;;
27612;SDS011;15036;48.094;-1.690;2024-01-06T02:23:34;0.82;;;0.65;;
27612;SDS011;15036;48.094;-1.690;2024-01-06T02:25:59;0.70;;;0.40;;
27612;SDS011;15036;48.094;-1.690;2024-01-06T02:28:25;2.20;;;0.60;;
27612;SDS011;15036;48.094;-1.690;2024-01-06T02:30:50;0.45;;;0.40;;
27612;SDS011;15036;48.094;-1.690;2024-01-06T02:33:15;0.63;;;0.63;;
27612;SDS011;15036;48.094;-1.690;2024-01-06T02:35:40;0.80;;;0.47;;
27612;SDS011;15036;48.094;-1.690;2024-01-06T02:38:06;0.10;;;0.10;;
27612;SDS011;15036;48.094;-1.690;2024-01-06T02:40:31;0.10;;;0.10;;
27612;SDS011;15036;48.094;-1.690;2024-01-06T02:42:57;0.00;;;0.00;;
27612;SDS011;15036;48.094;-1.690;2024-01-06T02:45:23;2.08;;;0.80;;
27612;SDS011;15036;48.094;-1.690;2024-01-06T02:47:48;0.40;;;0.32;;
27612;SDS011;15036;48.094;-1.690;2024-01-06T02:50:13;0.13;;;0.13;;
27612;SDS011;15036;48.094;-1.690;2024-01-06T02:52:38;0.00;;;0.00;;
27612;SDS011;15036;48.094;-1.690;2024-01-06T02:55:04;0.00;;;0.00;;
27612;SDS011;15036;48.094;-1.690;2024-01-06T02:57:29;0.10;;;0.10;;
27612;SDS011;15036;48.094;-1.690;2024-01-06T02:59:54;0.00;;;0.00;;
27612;SDS011;15036;48.094;-1.690;2024-01-06T03:02:20;0.38;;;0.20;;
27612;SDS011;15036;48.094;-1.690;2024-01-06T03:04:45;0.03;;;0.03;;
27612;SDS011;15036;48.094;-1.690;2024-01-06T03:07:10;0.00;;;0.00;;
27612;SDS011;15036;48.094;-1.690;2024-01-06T03:09:35;2.63;;;2.10;;
27612;SDS011;15036;48.094;-1.690;2024-01-06T03:12:00;0.20;;;0.20;;
27612;SDS011;15036;48.094;-1.690;2024-01-06T03:14:26;0.10;;;0.10;;
27612;SDS011;15036;48.094;-1.690;2024-01-06T03:16:51;0.17;;;0.15;;
27612;SDS011;15036;48.094;-1.690;2024-01-06T03:19:16;0.10;;;0.10;;
27612;SDS011;15036;48.094;-1.690;2024-01-06T03:21:41;0.10;;;0.10;;
27612;SDS011;15036;48.094;-1.690;2024-01-06T03:24:07;0.10;;;0.10;;
27612;SDS011;15036;48.094;-1.690;2024-01-06T03:26:33;0.30;;;0.30;;
27612;SDS011;15036;48.094;-1.690;2024-01-06T03:28:59;0.15;;;0.15;;
27612;SDS011;15036;48.094;-1.690;2024-01-06T03:31:24;0.32;;;0.32;;
27612;SDS011;15036;48.094;-1.690;2024-01-06T03:33:49;0.20;;;0.20;;
27612;SDS011;15036;48.094;-1.690;2024-01-06T03:36:15;0.10;;;0.10;;
27612;SDS011;15036;48.094;-1.690;2024-01-06T03:38:41;0.10;;;0.10;;
27612;SDS011;15036;48.094;-1.690;2024-01-06T03:41:07;0.28;;;0.20;;
27612;SDS011;15036;48.094;-1.690;2024-01-06T03:43:32;0.75;;;0.35;;
27612;SDS011;15036;48.094;-1.690;2024-01-06T03:45:57;0.10;;;0.10;;
27612;SDS011;15036;48.094;-1.690;2024-01-06T03:48:25;0.10;;;0.10;;
27612;SDS011;15036;48.094;-1.690;2024-01-06T03:50:50;0.05;;;0.05;;
27612;SDS011;15036;48.094;-1.690;2024-01-06T03:53:15;0.10;;;0.10;;
27612;SDS011;15036;48.094;-1.690;2024-01-06T03:55:40;0.10;;;0.10;;
27612;SDS011;15036;48.094;-1.690;2024-01-06T03:58:06;0.85;;;0.47;;
27612;SDS011;15036;48.094;-1.690;2024-01-06T04:00:31;0.30;;;0.10;;
27612;SDS011;15036;48.094;-1.690;2024-01-06T04:02:56;0.10;;;0.10;;
27612;SDS011;15036;48.094;-1.690;2024-01-06T04:05:21;0.20;;;0.20;;
27612;SDS011;15036;48.094;-1.690;2024-01-06T04:07:47;0.00;;;0.00;;
27612;SDS011;15036;48.094;-1.690;2024-01-06T04:10:12;0.10;;;0.10;;
27612;SDS011;15036;48.094;-1.690;2024-01-06T04:12:37;0.10;;;0.10;;
27612;SDS011;15036;48.094;-1.690;2024-01-06T04:15:02;0.20;;;0.20;;
27612;SDS011;15036;48.094;-1.690;2024-01-06T04:17:28;0.10;;;0.10;;
27612;SDS011;15036;48.094;-1.690;2024-01-06T04:19:53;0.25;;;0.25;;
27612;SDS011;15036;48.094;-1.690;2024-01-06T04:22:19;0.10;;;0.10;;
27612;SDS011;15036;48.094;-1.690;2024-01-06T04:24:44;0.20;;;0.20;;
27612;SDS011;15036;48.094;-1.690;2024-01-06T04:27:09;0.20;;;0.20;;
27612;SDS011;15036;48.094;-1.690;2024-01-06T04:29:35;0.30;;;0.30;;
27612;SDS011;15036;48.094;-1.690;2024-01-06T04:32:00;0.17;;;0.17;;
27612;SDS011;15036;48.094;-1.690;2024-01-06T04:34:25;0.40;;;0.20;;
27612;SDS011;15036;48.094;-1.690;2024-01-06T04:36:50;0.38;;;0.22;;
27612;SDS011;15036;48.094;-1.690;2024-01-06T04:39:15;0.93;;;0.20;;
27612;SDS011;15036;48.094;-1.690;2024-01-06T04:41:41;0.20;;;0.20;;
27612;SDS011;15036;48.094;-1.690;2024-01-06T04:44:06;0.10;;;0.10;;
27612;SDS011;15036;48.094;-1.690;2024-01-06T04:46:32;0.10;;;0.10;;
27612;SDS011;15036;48.094;-1.690;2024-01-06T04:48:57;0.10;;;0.10;;
27612;SDS011;15036;48.094;-1.690;2024-01-06T04:51:23;0.00;;;0.00;;
27612;SDS011;15036;48.094;-1.690;2024-01-06T04:53:48;0.00;;;0.00;;
27612;SDS011;15036;48.094;-1.690;2024-01-06T04:56:13;0.00;;;0.00;;
27612;SDS011;15036;48.094;-1.690;2024-01-06T04:58:38;0.00;;;0.00;;
27612;SDS011;15036;48.094;-1.690;2024-01-06T05:01:04;0.00;;;0.00;;
27612;SDS011;15036;48.094;-1.690;2024-01-06T05:03:29;0.00;;;0.00;;
27612;SDS011;15036;48.094;-1.690;2024-01-06T05:05:54;0.08;;;0.08;;
27612;SDS011;15036;48.094;-1.690;2024-01-06T05:08:20;0.10;;;0.10;;
27612;SDS011;15036;48.094;-1.690;2024-01-06T05:10:47;0.00;;;0.00;;
27612;SDS011;15036;48.094;-1.690;2024-01-06T05:13:12;0.10;;;0.10;;
27612;SDS011;15036;48.094;-1.690;2024-01-06T05:15:37;0.00;;;0.00;;
27612;SDS011;15036;48.094;-1.690;2024-01-06T05:18:03;0.00;;;0.00;;
27612;SDS011;15036;48.094;-1.690;2024-01-06T05:20:28;0.00;;;0.00;;
27612;SDS011;15036;48.094;-1.690;2024-01-06T05:22:53;0.00;;;0.00;;
27612;SDS011;15036;48.094;-1.690;2024-01-06T05:25:19;0.10;;;0.10;;
27612;SDS011;15036;48.094;-1.690;2024-01-06T05:27:44;0.10;;;0.10;;
27612;SDS011;15036;48.094;-1.690;2024-01-06T05:30:09;0.00;;;0.00;;
27612;SDS011;15036;48.094;-1.690;2024-01-06T05:32:36;0.00;;;0.00;;
27612;SDS011;15036;48.094;-1.690;2024-01-06T05:35:01;0.47;;;0.40;;
27612;SDS011;15036;48.094;-1.690;2024-01-06T05:37:27;0.00;;;0.00;;
27612;SDS011;15036;48.094;-1.690;2024-01-06T05:39:52;0.08;;;0.08;;
27612;SDS011;15036;48.094;-1.690;2024-01-06T05:42:17;0.10;;;0.10;;
27612;SDS011;15036;48.094;-1.690;2024-01-06T05:44:42;0.25;;;0.25;;
27612;SDS011;15036;48.094;-1.690;2024-01-06T05:47:07;0.00;;;0.00;;
27612;SDS011;15036;48.094;-1.690;2024-01-06T05:49:33;0.00;;;0.00;;
27612;SDS011;15036;48.094;-1.690;2024-01-06T05:51:58;0.00;;;0.00;;
27612;SDS011;15036;48.094;-1.690;2024-01-06T05:54:23;0.00;;;0.00;;
27612;SDS011;15036;48.094;-1.690;2024-01-06T05:56:49;0.00;;;0.00;;
27612;SDS011;15036;48.094;-1.690;2024-01-06T05:59:14;0.10;;;0.10;;
27612;SDS011;15036;48.094;-1.690;2024-01-06T06:01:39;0.10;;;0.10;;
27612;SDS011;15036;48.094;-1.690;2024-01-06T06:04:04;0.00;;;0.00;;
27612;SDS011;15036;48.094;-1.690;2024-01-06T06:06:30;0.10;;;0.10;;
27612;SDS011;15036;48.094;-1.690;2024-01-06T06:08:55;0.32;;;0.30;;
27612;SDS011;15036;48.094;-1.690;2024-01-06T06:11:21;0.30;;;0.30;;
27612;SDS011;15036;48.094;-1.690;2024-01-06T06:13:46;0.00;;;0.00;;
27612;SDS011;15036;48.094;-1.690;2024-01-06T06:16:11;0.10;;;0.10;;
27612;SDS011;15036;48.094;-1.690;2024-01-06T06:18:39;0.00;;;0.00;;
27612;SDS011;15036;48.094;-1.690;2024-01-06T06:21:05;0.10;;;0.10;;
27612;SDS011;15036;48.094;-1.690;2024-01-06T06:23:31;0.17;;;0.17;;
27612;SDS011;15036;48.094;-1.690;2024-01-06T06:25:56;0.00;;;0.00;;
27612;SDS011;15036;48.094;-1.690;2024-01-06T06:28:21;0.20;;;0.20;;
27612;SDS011;15036;48.094;-1.690;2024-01-06T06:30:47;0.65;;;0.65;;
27612;SDS011;15036;48.094;-1.690;2024-01-06T06:33:12;0.10;;;0.10;;
27612;SDS011;15036;48.094;-1.690;2024-01-06T06:35:37;0.70;;;0.35;;
27612;SDS011;15036;48.094;-1.690;2024-01-06T06:38:02;2.58;;;1.65;;
27612;SDS011;15036;48.094;-1.690;2024-01-06T06:40:28;2.70;;;1.67;;
27612;SDS011;15036;48.094;-1.690;2024-01-06T06:42:53;3.95;;;1.88;;
27612;SDS011;15036;48.094;-1.690;2024-01-06T06:45:19;4.68;;;2.08;;
27612;SDS011;15036;48.094;-1.690;2024-01-06T06:47:47;0.20;;;0.20;;
27612;SDS011;15036;48.094;-1.690;2024-01-06T06:50:12;0.00;;;0.00;;
27612;SDS011;15036;48.094;-1.690;2024-01-06T06:52:37;0.00;;;0.00;;
27612;SDS011;15036;48.094;-1.690;2024-01-06T06:55:03;0.50;;;0.47;;
27612;SDS011;15036;48.094;-1.690;2024-01-06T06:57:28;0.52;;;0.52;;
27612;SDS011;15036;48.094;-1.690;2024-01-06T06:59:54;3.85;;;2.30;;
27612;SDS011;15036;48.094;-1.690;2024-01-06T07:02:19;6.63;;;2.20;;
27612;SDS011;15036;48.094;-1.690;2024-01-06T07:04:44;4.03;;;2.22;;
27612;SDS011;15036;48.094;-1.690;2024-01-06T07:07:10;4.88;;;2.35;;
27612;SDS011;15036;48.094;-1.690;2024-01-06T07:09:35;6.20;;;2.42;;
27612;SDS011;15036;48.094;-1.690;2024-01-06T07:12:00;5.95;;;2.10;;
27612;SDS011;15036;48.094;-1.690;2024-01-06T07:14:26;6.55;;;2.40;;
27612;SDS011;15036;48.094;-1.690;2024-01-06T07:16:51;0.20;;;0.20;;
27612;SDS011;15036;48.094;-1.690;2024-01-06T07:19:17;0.00;;;0.00;;
27612;SDS011;15036;48.094;-1.690;2024-01-06T07:21:42;0.10;;;0.10;;
27612;SDS011;15036;48.094;-1.690;2024-01-06T07:24:07;0.20;;;0.20;;
27612;SDS011;15036;48.094;-1.690;2024-01-06T07:26:32;0.30;;;0.30;;
27612;SDS011;15036;48.094;-1.690;2024-01-06T07:28:58;0.10;;;0.10;;
27612;SDS011;15036;48.094;-1.690;2024-01-06T07:31:23;0.00;;;0.00;;
27612;SDS011;15036;48.094;-1.690;2024-01-06T07:33:48;0.30;;;0.30;;
27612;SDS011;15036;48.094;-1.690;2024-01-06T07:36:13;0.25;;;0.20;;
27612;SDS011;15036;48.094;-1.690;2024-01-06T07:38:38;0.10;;;0.10;;
27612;SDS011;15036;48.094;-1.690;2024-01-06T07:41:04;0.10;;;0.10;;
27612;SDS011;15036;48.094;-1.690;2024-01-06T07:43:32;0.75;;;0.55;;
27612;SDS011;15036;48.094;-1.690;2024-01-06T07:45:57;0.28;;;0.25;;
27612;SDS011;15036;48.094;-1.690;2024-01-06T07:48:22;3.95;;;2.92;;
27612;SDS011;15036;48.094;-1.690;2024-01-06T07:50:48;0.00;;;0.00;;
27612;SDS011;15036;48.094;-1.690;2024-01-06T07:53:13;0.10;;;0.10;;
27612;SDS011;15036;48.094;-1.690;2024-01-06T07:55:42;0.10;;;0.10;;
27612;SDS011;15036;48.094;-1.690;2024-01-06T07:58:07;0.52;;;0.25;;
27612;SDS011;15036;48.094;-1.690;2024-01-06T08:00:32;0.98;;;0.38;;
27612;SDS011;15036;48.094;-1.690;2024-01-06T08:02:57;0.20;;;0.15;;
27612;SDS011;15036;48.094;-1.690;2024-01-06T08:05:23;0.88;;;0.85;;
27612;SDS011;15036;48.094;-1.690;2024-01-06T08:07:48;0.40;;;0.20;;
27612;SDS011;15036;48.094;-1.690;2024-01-06T08:10:14;0.35;;;0.35;;
27612;SDS011;15036;48.094;-1.690;2024-01-06T08:12:39;0.00;;;0.00;;
27612;SDS011;15036;48.094;-1.690;2024-01-06T08:15:05;1.25;;;1.15;;
27612;SDS011;15036;48.094;-1.690;2024-01-06T08:17:30;0.30;;;0.30;;
27612;SDS011;15036;48.094;-1.690;2024-01-06T08:19:55;0.50;;;0.50;;
27612;SDS011;15036;48.094;-1.690;2024-01-06T08:22:21;0.20;;;0.20;;
27612;SDS011;15036;48.094;-1.690;2024-01-06T08:24:46;0.10;;;0.10;;
27612;SDS011;15036;48.094;-1.690;2024-01-06T08:27:12;0.55;;;0.52;;
27612;SDS011;15036;48.094;-1.690;2024-01-06T08:29:37;0.10;;;0.10;;
27612;SDS011;15036;48.094;-1.690;2024-01-06T08:32:02;1.55;;;1.30;;
27612;SDS011;15036;48.094;-1.690;2024-01-06T08:34:28;0.45;;;0.30;;
27612;SDS011;15036;48.094;-1.690;2024-01-06T08:36:53;8.75;;;3.65;;
27612;SDS011;15036;48.094;-1.690;2024-01-06T08:39:18;9.75;;;4.72;;
27612;SDS011;15036;48.094;-1.690;2024-01-06T08:41:43;7.20;;;3.20;;
27612;SDS011;15036;48.094;-1.690;2024-01-06T08:44:09;10.20;;;4.80;;
27612;SDS011;15036;48.094;-1.690;2024-01-06T08:46:34;9.35;;;4.40;;
27612;SDS011;15036;48.094;-1.690;2024-01-06T08:48:59;8.52;;;2.63;;
27612;SDS011;15036;48.094;-1.690;2024-01-06T08:51:25;6.43;;;3.13;;
27612;SDS011;15036;48.094;-1.690;2024-01-06T08:53:51;6.68;;;3.13;;
27612;SDS011;15036;48.094;-1.690;2024-01-06T08:56:16;7.35;;;5.35;;
27612;SDS011;15036;48.094;-1.690;2024-01-06T08:58:42;5.40;;;2.28;;
27612;SDS011;15036;48.094;-1.690;2024-01-06T09:01:08;4.32;;;2.55;;
27612;SDS011;15036;48.094;-1.690;2024-01-06T09:03:33;10.30;;;4.60;;
27612;SDS011;15036;48.094;-1.690;2024-01-06T09:05:58;8.35;;;4.78;;
27612;SDS011;15036;48.094;-1.690;2024-01-06T09:08:23;5.93;;;2.15;;
27612;SDS011;15036;48.094;-1.690;2024-01-06T09:10:49;4.00;;;2.00;;
27612;SDS011;15036;48.094;-1.690;2024-01-06T09:13:16;4.82;;;1.90;;
27612;SDS011;15036;48.094;-1.690;2024-01-06T09:15:41;6.60;;;3.33;;
27612;SDS011;15036;48.094;-1.690;2024-01-06T09:18:07;6.45;;;2.58;;
27612;SDS011;15036;48.094;-1.690;2024-01-06T09:20:33;6.25;;;2.30;;
27612;SDS011;15036;48.094;-1.690;2024-01-06T09:22:58;7.65;;;1.77;;
27612;SDS011;15036;48.094;-1.690;2024-01-06T09:25:24;8.80;;;2.80;;
27612;SDS011;15036;48.094;-1.690;2024-01-06T09:27:49;3.38;;;1.50;;
27612;SDS011;15036;48.094;-1.690;2024-01-06T09:30:16;5.50;;;1.90;;
27612;SDS011;15036;48.094;-1.690;2024-01-06T09:32:41;7.22;;;2.35;;
27612;SDS011;15036;48.094;-1.690;2024-01-06T09:35:06;9.73;;;4.32;;
27612;SDS011;15036;48.094;-1.690;2024-01-06T09:37:32;7.18;;;2.65;;
27612;SDS011;15036;48.094;-1.690;2024-01-06T09:39:57;7.45;;;3.13;;
27612;SDS011;15036;48.094;-1.690;2024-01-06T09:42:22;5.95;;;2.63;;
27612;SDS011;15036;48.094;-1.690;2024-01-06T09:44:47;8.30;;;2.88;;
27612;SDS011;15036;48.094;-1.690;2024-01-06T09:47:12;5.95;;;2.88;;
27612;SDS011;15036;48.094;-1.690;2024-01-06T09:49:38;12.00;;;4.05;;
27612;SDS011;15036;48.094;-1.690;2024-01-06T09:52:08;10.00;;;3.90;;
27612;SDS011;15036;48.094;-1.690;2024-01-06T09:54:37;7.85;;;3.05;;
27612;SDS011;15036;48.094;-1.690;2024-01-06T09:57:04;5.78;;;2.60;;
27612;SDS011;15036;48.094;-1.690;2024-01-06T09:59:31;11.57;;;4.97;;
27612;SDS011;15036;48.094;-1.690;2024-01-06T10:01:59;7.45;;;3.08;;
27612;SDS011;15036;48.094;-1.690;2024-01-06T10:04:25;7.70;;;3.85;;
27612;SDS011;15036;48.094;-1.690;2024-01-06T10:06:50;10.45;;;5.78;;
27612;SDS011;15036;48.094;-1.690;2024-01-06T10:09:15;11.65;;;4.03;;
27612;SDS011;15036;48.094;-1.690;2024-01-06T10:11:41;6.72;;;2.30;;
27612;SDS011;15036;48.094;-1.690;2024-01-06T10:14:06;8.35;;;3.45;;
27612;SDS011;15036;48.094;-1.690;2024-01-06T10:16:31;5.47;;;2.55;;
27612;SDS011;15036;48.094;-1.690;2024-01-06T10:18:58;14.07;;;6.72;;
27612;SDS011;15036;48.094;-1.690;2024-01-06T10:21:25;13.32;;;5.28;;
27612;SDS011;15036;48.094;-1.690;2024-01-06T10:23:51;0.10;;;0.10;;
27612;SDS011;15036;48.094;-1.690;2024-01-06T10:26:16;10.55;;;3.92;;
27612;SDS011;15036;48.094;-1.690;2024-01-06T10:28:42;12.88;;;7.57;;
27612;SDS011;15036;48.094;-1.690;2024-01-06T10:31:08;7.50;;;3.20;;
27612;SDS011;15036;48.094;-1.690;2024-01-06T10:33:33;13.57;;;5.05;;
27612;SDS011;15036;48.094;-1.690;2024-01-06T10:36:01;12.32;;;6.32;;
27612;SDS011;15036;48.094;-1.690;2024-01-06T10:38:30;6.80;;;2.70;;
27612;SDS011;15036;48.094;-1.690;2024-01-06T10:40:58;7.70;;;2.13;;
27612;SDS011;15036;48.094;-1.690;2024-01-06T10:43:27;13.00;;;3.92;;
27612;SDS011;15036;48.094;-1.690;2024-01-06T10:45:59;10.63;;;4.80;;
27612;SDS011;15036;48.094;-1.690;2024-01-06T10:48:29;8.50;;;2.70;;
27612;SDS011;15036;48.094;-1.690;2024-01-06T10:50:55;5.97;;;3.25;;
27612;SDS011;15036;48.094;-1.690;2024-01-06T10:53:20;7.40;;;1.55;;
27612;SDS011;15036;48.094;-1.690;2024-01-06T10:55:48;6.00;;;1.50;;
27612;SDS011;15036;48.094;-1.690;2024-01-06T10:58:14;7.15;;;1.77;;
27612;SDS011;15036;48.094;-1.690;2024-01-06T11:00:41;1.88;;;0.55;;
27612;SDS011;15036;48.094;-1.690;2024-01-06T11:03:06;4.40;;;1.70;;
27612;SDS011;15036;48.094;-1.690;2024-01-06T11:05:32;4.28;;;1.40;;
27612;SDS011;15036;48.094;-1.690;2024-01-06T11:07:58;3.72;;;1.60;;
27612;SDS011;15036;48.094;-1.690;2024-01-06T11:10:25;7.68;;;1.83;;
27612;SDS011;15036;48.094;-1.690;2024-01-06T11:15:47;5.55;;;1.70;;
27612;SDS011;15036;48.094;-1.690;2024-01-06T11:21:17;0.05;;;0.05;;
27612;SDS011;15036;48.094;-1.690;2024-01-06T11:23:44;1.05;;;0.28;;
27612;SDS011;15036;48.094;-1.690;2024-01-06T11:26:09;1.45;;;0.65;;
27612;SDS011;15036;48.094;-1.690;2024-01-06T11:28:44;0.10;;;0.10;;
27612;SDS011;15036;48.094;-1.690;2024-01-06T11:31:10;0.00;;;0.00;;
27612;SDS011;15036;48.094;-1.690;2024-01-06T11:33:42;1.33;;;0.85;;
27612;SDS011;15036;48.094;-1.690;2024-01-06T11:36:10;2.03;;;1.27;;
27612;SDS011;15036;48.094;-1.690;2024-01-06T11:38:39;1.42;;;1.15;;
27612;SDS011;15036;48.094;-1.690;2024-01-06T11:41:06;0.38;;;0.30;;
27612;SDS011;15036;48.094;-1.690;2024-01-06T11:43:31;0.40;;;0.40;;
27612;SDS011;15036;48.094;-1.690;2024-01-06T11:45:59;0.40;;;0.40;;
27612;SDS011;15036;48.094;-1.690;2024-01-06T11:48:26;0.50;;;0.40;;
27612;SDS011;15036;48.094;-1.690;2024-01-06T11:50:54;0.10;;;0.10;;
27612;SDS011;15036;48.094;-1.690;2024-01-06T11:53:19;0.47;;;0.30;;
27612;SDS011;15036;48.094;-1.690;2024-01-06T11:55:45;0.55;;;0.40;;
27612;SDS011;15036;48.094;-1.690;2024-01-06T11:58:10;0.20;;;0.20;;
27612;SDS011;15036;48.094;-1.690;2024-01-06T12:00:35;0.15;;;0.15;;
27612;SDS011;15036;48.094;-1.690;2024-01-06T12:03:04;0.15;;;0.10;;
27612;SDS011;15036;48.094;-1.690;2024-01-06T12:05:29;0.20;;;0.20;;
27612;SDS011;15036;48.094;-1.690;2024-01-06T12:07:55;0.45;;;0.30;;
27612;SDS011;15036;48.094;-1.690;2024-01-06T12:10:21;0.35;;;0.10;;
27612;SDS011;15036;48.094;-1.690;2024-01-06T12:15:23;1.98;;;0.20;;
27612;SDS011;15036;48.094;-1.690;2024-01-06T12:17:49;3.65;;;0.82;;
27612;SDS011;15036;48.094;-1.690;2024-01-06T12:20:15;7.93;;;1.20;;
27612;SDS011;15036;48.094;-1.690;2024-01-06T12:22:40;5.47;;;1.40;;
27612;SDS011;15036;48.094;-1.690;2024-01-06T12:25:05;7.55;;;1.50;;
27612;SDS011;15036;48.094;-1.690;2024-01-06T12:27:31;5.03;;;1.95;;
27612;SDS011;15036;48.094;-1.690;2024-01-06T12:29:56;5.53;;;1.88;;
27612;SDS011;15036;48.094;-1.690;2024-01-06T12:32:22;3.78;;;1.92;;
27612;SDS011;15036;48.094;-1.690;2024-01-06T12:34:47;3.85;;;1.10;;
27612;SDS011;15036;48.094;-1.690;2024-01-06T12:37:13;5.05;;;1.73;;
27612;SDS011;15036;48.094;-1.690;2024-01-06T12:39:38;7.20;;;2.20;;
27612;SDS011;15036;48.094;-1.690;2024-01-06T12:42:03;6.93;;;1.88;;
27612;SDS011;15036;48.094;-1.690;2024-01-06T12:44:29;4.35;;;1.50;;
27612;SDS011;15036;48.094;-1.690;2024-01-06T12:46:57;2.90;;;0.80;;
27612;SDS011;15036;48.094;-1.690;2024-01-06T12:49:23;4.82;;;1.08;;
27612;SDS011;15036;48.094;-1.690;2024-01-06T12:51:48;4.38;;;1.13;;
27612;SDS011;15036;48.094;-1.690;2024-01-06T12:54:15;5.28;;;1.42;;
27612;SDS011;15036;48.094;-1.690;2024-01-06T12:56:40;7.68;;;1.38;;
27612;SDS011;15036;48.094;-1.690;2024-01-06T12:59:05;4.97;;;1.10;;
27612;SDS011;15036;48.094;-1.690;2024-01-06T13:01:31;8.30;;;2.13;;
27612;SDS011;15036;48.094;-1.690;2024-01-06T13:03:56;5.20;;;1.58;;
27612;SDS011;15036;48.094;-1.690;2024-01-06T13:06:24;5.30;;;1.20;;
27612;SDS011;15036;48.094;-1.690;2024-01-06T13:08:50;5.97;;;1.33;;
27612;SDS011;15036;48.094;-1.690;2024-01-06T13:11:16;0.47;;;0.17;;
27612;SDS011;15036;48.094;-1.690;2024-01-06T13:13:41;0.30;;;0.30;;
27612;SDS011;15036;48.094;-1.690;2024-01-06T13:16:06;0.80;;;0.60;;
27612;SDS011;15036;48.094;-1.690;2024-01-06T13:18:31;3.17;;;0.93;;
27612;SDS011;15036;48.094;-1.690;2024-01-06T13:23:26;5.43;;;0.88;;
27612;SDS011;15036;48.094;-1.690;2024-01-06T13:25:51;9.60;;;1.92;;
27612;SDS011;15036;48.094;-1.690;2024-01-06T13:28:17;6.47;;;1.60;;
27612;SDS011;15036;48.094;-1.690;2024-01-06T13:30:42;4.30;;;1.20;;
27612;SDS011;15036;48.094;-1.690;2024-01-06T13:33:07;6.38;;;1.52;;
27612;SDS011;15036;48.094;-1.690;2024-01-06T13:35:34;4.82;;;1.33;;
27612;SDS011;15036;48.094;-1.690;2024-01-06T13:38:01;11.65;;;1.48;;
27612;SDS011;15036;48.094;-1.690;2024-01-06T13:40:28;7.03;;;1.60;;
27612;SDS011;15036;48.094;-1.690;2024-01-06T13:42:53;5.95;;;1.52;;
27612;SDS011;15036;48.094;-1.690;2024-01-06T13:45:19;0.93;;;0.50;;
27612;SDS011;15036;48.094;-1.690;2024-01-06T13:47:44;0.10;;;0.10;;
27612;SDS011;15036;48.094;-1.690;2024-01-06T13:50:11;0.05;;;0.05;;
27612;SDS011;15036;48.094;-1.690;2024-01-06T13:52:36;1.00;;;0.25;;
27612;SDS011;15036;48.094;-1.690;2024-01-06T13:55:02;0.22;;;0.22;;
27612;SDS011;15036;48.094;-1.690;2024-01-06T13:57:27;1.55;;;0.22;;
27612;SDS011;15036;48.094;-1.690;2024-01-06T13:59:52;0.45;;;0.30;;
27612;SDS011;15036;48.094;-1.690;2024-01-06T14:02:17;0.95;;;0.30;;
27612;SDS011;15036;48.094;-1.690;2024-01-06T14:04:43;1.52;;;0.68;;
27612;SDS011;15036;48.094;-1.690;2024-01-06T14:07:08;0.05;;;0.05;;
27612;SDS011;15036;48.094;-1.690;2024-01-06T14:09:35;0.05;;;0.05;;
27612;SDS011;15036;48.094;-1.690;2024-01-06T14:12:00;0.30;;;0.30;;
27612;SDS011;15036;48.094;-1.690;2024-01-06T14:14:25;1.08;;;0.32;;
27612;SDS011;15036;48.094;-1.690;2024-01-06T14:16:51;0.52;;;0.30;;
27612;SDS011;15036;48.094;-1.690;2024-01-06T14:19:16;0.10;;;0.10;;
27612;SDS011;15036;48.094;-1.690;2024-01-06T14:21:42;0.40;;;0.40;;
27612;SDS011;15036;48.094;-1.690;2024-01-06T14:24:07;0.63;;;0.38;;
27612;SDS011;15036;48.094;-1.690;2024-01-06T14:26:32;4.40;;;0.88;;
27612;SDS011;15036;48.094;-1.690;2024-01-06T14:28:59;1.55;;;0.30;;
